Time;durP1;ratioP1;P1;durP2;ratioP2;P2;SDS_P1;SDS_P2;PMS_P1;PMS_P2;Temp;Humidity;BMP_temperature;BMP_pressure;BME280_temperature;BME280_humidity;BME280_pressure;Samples;Min_cycle;Max_cycle;Signal;HPM_P1;HPM_P2
2023/01/26 00:01:19;;;;;;;27.48;9.93;;;0.90;99.90;;;;;;5053896;28;20051;-67
2023/01/26 00:03:45;;;;;;;28.15;10.32;;;1.00;99.90;;;;;;5062758;28;20037;-66
2023/01/26 00:06:13;;;;;;;23.92;9.10;;;1.00;99.90;;;;;;5059841;28;20567;-66
2023/01/26 00:08:41;;;;;;;28.75;9.60;;;1.00;99.90;;;;;;5062621;28;20045;-66
2023/01/26 00:11:09;;;;;;;29.58;9.40;;;1.00;99.90;;;;;;5041619;28;20045;-67
2023/01/26 00:13:35;;;;;;;25.98;9.70;;;1.00;99.90;;;;;;5046054;28;20040;-67
2023/01/26 00:16:02;;;;;;;23.25;9.48;;;1.00;99.90;;;;;;5063734;28;20482;-67
2023/01/26 00:18:28;;;;;;;30.92;10.93;;;1.00;99.90;;;;;;5056736;28;20045;-67
2023/01/26 00:20:58;;;;;;;26.88;9.60;;;1.00;99.90;;;;;;5062695;28;20131;-67
2023/01/26 00:23:24;;;;;;;30.15;8.80;;;1.00;99.90;;;;;;5061748;28;21156;-66
2023/01/26 00:25:50;;;;;;;25.92;9.00;;;1.00;99.90;;;;;;5063607;28;20037;-66
2023/01/26 00:28:16;;;;;;;28.75;9.55;;;1.00;99.90;;;;;;5057394;28;20060;-66
2023/01/26 00:30:41;;;;;;;26.70;9.53;;;0.90;99.90;;;;;;5037772;28;20159;-67
2023/01/26 00:33:07;;;;;;;28.93;10.30;;;0.90;99.90;;;;;;5062100;28;20094;-67
2023/01/26 00:35:33;;;;;;;29.20;8.90;;;1.00;99.90;;;;;;5040947;28;20479;-66
2023/01/26 00:37:58;;;;;;;25.40;9.03;;;0.90;99.90;;;;;;5059498;28;20275;-66
2023/01/26 00:40:24;;;;;;;22.10;8.70;;;1.00;99.90;;;;;;5047055;28;20120;-66
2023/01/26 00:42:52;;;;;;;28.03;9.07;;;1.00;99.90;;;;;;5059139;28;20055;-66
2023/01/26 00:45:17;;;;;;;30.52;9.10;;;1.00;99.90;;;;;;5027390;28;20079;-66
2023/01/26 00:47:43;;;;;;;28.97;10.20;;;1.00;99.90;;;;;;5064861;28;20072;-66
2023/01/26 00:50:10;;;;;;;23.70;8.48;;;1.00;99.90;;;;;;5044028;28;20528;-66
2023/01/26 00:52:35;;;;;;;22.35;8.52;;;1.00;99.90;;;;;;5041098;28;20051;-66
2023/01/26 00:55:04;;;;;;;29.37;9.13;;;1.00;99.90;;;;;;5063129;28;20040;-66
2023/01/26 00:57:29;;;;;;;26.85;9.73;;;1.00;99.90;;;;;;5040851;28;20036;-66
2023/01/26 00:59:55;;;;;;;24.10;8.53;;;1.00;99.90;;;;;;5053390;28;20093;-66
2023/01/26 01:02:21;;;;;;;25.73;9.37;;;1.00;99.90;;;;;;5056179;28;20144;-65
2023/01/26 01:04:46;;;;;;;23.27;8.67;;;1.00;99.90;;;;;;5055290;28;20438;-66
2023/01/26 01:07:12;;;;;;;23.50;8.50;;;1.10;99.90;;;;;;5071845;22;20044;-65
2023/01/26 01:09:37;;;;;;;20.70;8.83;;;1.00;99.90;;;;;;5062347;28;20036;-64
2023/01/26 01:12:03;;;;;;;20.93;7.73;;;1.10;99.90;;;;;;5065564;28;20112;-65
2023/01/26 01:14:29;;;;;;;28.40;10.38;;;1.00;99.90;;;;;;5066416;28;20482;-64
2023/01/26 01:16:55;;;;;;;22.63;8.83;;;1.00;99.90;;;;;;5062817;28;20046;-65
2023/01/26 01:19:20;;;;;;;24.83;8.07;;;1.10;99.90;;;;;;5067628;28;20158;-65
2023/01/26 01:21:46;;;;;;;22.53;9.73;;;1.00;99.90;;;;;;5061016;28;20494;-67
2023/01/26 01:24:12;;;;;;;27.87;9.13;;;1.00;99.90;;;;;;5069283;28;20036;-65
2023/01/26 01:26:38;;;;;;;22.50;9.37;;;1.00;99.90;;;;;;5065646;28;20047;-65
2023/01/26 01:29:04;;;;;;;;;;;1.00;99.90;;;;;;5069787;28;20508;-66
2023/01/26 01:31:30;;;;;;;28.50;9.07;;;1.10;99.90;;;;;;5068861;28;19969;-65
2023/01/26 01:33:57;;;;;;;26.73;9.20;;;1.10;99.90;;;;;;5060145;28;20127;-65
2023/01/26 01:36:23;;;;;;;26.38;9.15;;;1.10;99.90;;;;;;5065232;28;20037;-65
2023/01/26 01:38:49;;;;;;;22.27;8.75;;;1.10;99.90;;;;;;5062984;28;20063;-65
2023/01/26 01:41:17;;;;;;;27.10;8.50;;;1.10;99.90;;;;;;5059235;28;20109;-65
2023/01/26 01:43:43;;;;;;;32.58;9.52;;;1.10;99.90;;;;;;5066876;28;20056;-65
2023/01/26 01:46:30;;;;;;;24.83;8.90;;;1.10;99.90;;;;;;5061095;28;20245;-65
2023/01/26 01:49:24;;;;;;;29.23;9.18;;;1.10;99.90;;;;;;5064770;28;20041;-64
2023/01/26 01:52:16;;;;;;;25.23;10.15;;;1.10;99.90;;;;;;5073634;28;20036;-65
2023/01/26 01:55:00;;;;;;;22.30;8.52;;;1.10;99.90;;;;;;5071281;28;20402;-65
2023/01/26 01:57:43;;;;;;;23.20;8.95;;;1.10;99.90;;;;;;5062779;28;20405;-65
2023/01/26 02:00:12;;;;;;;21.83;8.60;;;1.10;99.90;;;;;;5059977;28;20046;-66
2023/01/26 02:02:39;;;;;;;22.10;8.65;;;1.10;99.90;;;;;;5059115;28;20084;-65
2023/01/26 02:05:25;;;;;;;23.15;8.88;;;1.10;99.90;;;;;;5066924;28;20065;-65
2023/01/26 02:07:51;;;;;;;26.88;9.57;;;1.10;99.90;;;;;;5069545;28;20032;-65
2023/01/26 02:10:19;;;;;;;23.95;7.50;;;1.10;99.90;;;;;;5060566;28;20037;-66
2023/01/26 02:12:52;;;;;;;24.13;8.90;;;1.10;99.90;;;;;;5066110;28;20291;-65
2023/01/26 02:15:18;;;;;;;29.42;8.13;;;1.20;99.90;;;;;;5058722;28;20458;-66
2023/01/26 02:17:44;;;;;;;23.67;8.90;;;1.20;99.90;;;;;;5062698;28;20080;-66
2023/01/26 02:20:12;;;;;;;23.85;9.13;;;1.20;99.90;;;;;;5065361;28;20036;-66
2023/01/26 02:23:04;;;;;;;21.70;8.48;;;1.20;99.90;;;;;;5065544;28;20049;-65
2023/01/26 02:25:41;;;;;;;26.25;8.98;;;1.20;99.90;;;;;;5065218;28;20043;-66
2023/01/26 02:28:07;;;;;;;22.48;8.10;;;1.20;99.90;;;;;;5063480;28;20075;-65
2023/01/26 02:30:33;;;;;;;22.67;7.60;;;1.20;99.90;;;;;;5058301;28;20117;-66
2023/01/26 02:32:58;;;;;;;26.10;9.80;;;1.30;99.90;;;;;;5065897;28;20464;-65
2023/01/26 02:35:24;;;;;;;26.27;8.33;;;1.20;99.90;;;;;;5068073;28;20041;-65
2023/01/26 02:37:50;;;;;;;25.47;10.03;;;1.20;99.90;;;;;;5058947;28;20044;-65
2023/01/26 02:40:49;;;;;;;28.50;9.90;;;1.20;99.90;;;;;;5067061;28;20040;-65
2023/01/26 02:43:15;;;;;;;22.75;9.15;;;1.20;99.90;;;;;;5054962;28;20052;-65
2023/01/26 02:45:42;;;;;;;22.17;8.63;;;1.20;99.90;;;;;;5060148;28;20044;-65
2023/01/26 02:48:08;;;;;;;24.67;8.73;;;1.20;99.90;;;;;;5060543;28;20056;-65
2023/01/26 02:50:34;;;;;;;22.87;7.90;;;1.20;99.90;;;;;;5062121;28;20044;-66
2023/01/26 02:53:01;;;;;;;21.45;9.07;;;1.30;99.90;;;;;;5063317;28;20289;-67
2023/01/26 02:55:27;;;;;;;19.88;8.23;;;1.30;99.90;;;;;;5067328;28;20044;-66
2023/01/26 02:57:59;;;;;;;23.03;8.93;;;1.20;99.90;;;;;;5061005;28;20177;-67
2023/01/26 03:00:27;;;;;;;27.67;9.48;;;1.30;99.90;;;;;;5061126;28;20179;-67
2023/01/26 03:02:55;;;;;;;22.10;7.72;;;1.30;99.90;;;;;;5061700;28;20556;-67
2023/01/26 03:05:21;;;;;;;25.10;8.90;;;1.30;99.90;;;;;;5070426;28;20044;-66
2023/01/26 03:07:47;;;;;;;24.53;8.97;;;1.30;99.90;;;;;;5062151;28;20390;-66
2023/01/26 03:10:14;;;;;;;23.33;8.63;;;1.30;99.90;;;;;;5062543;28;20123;-66
2023/01/26 03:12:40;;;;;;;26.52;8.43;;;1.40;99.90;;;;;;5063278;28;20109;-66
2023/01/26 03:27:25;;;;;;;25.35;9.20;;;1.40;99.90;;;;;;5067876;28;20044;-66
2023/01/26 03:28:53;;;;;;;24.70;7.88;;;1.50;99.90;;;;;;5063182;28;20465;-66
2023/01/26 03:31:19;;;;;;;17.97;7.23;;;1.50;99.90;;;;;;5063907;28;20072;-66
2023/01/26 03:33:44;;;;;;;22.77;9.10;;;1.50;99.90;;;;;;5069748;28;20048;-66
2023/01/26 03:36:10;;;;;;;20.73;8.47;;;1.50;99.90;;;;;;5072739;28;20086;-67
2023/01/26 03:38:36;;;;;;;22.20;8.70;;;1.50;99.90;;;;;;5071930;28;20032;-66
2023/01/26 03:57:28;;;;;;;18.20;7.25;;;1.70;99.90;;;;;;5065672;28;20072;-67
2023/01/26 03:59:54;;;;;;;21.52;7.90;;;1.70;99.90;;;;;;5068665;28;20040;-67
2023/01/26 04:10:33;;;;;;;22.55;8.75;;;1.80;99.90;;;;;;5064834;28;20045;-67
2023/01/26 04:21:34;;;;;;;26.00;9.40;;;1.90;99.90;;;;;;5072001;28;20554;-67
2023/01/26 04:24:01;;;;;;;27.60;8.57;;;1.90;99.90;;;;;;5065390;28;20075;-66
2023/01/26 04:26:35;;;;;;;24.38;8.77;;;1.90;99.90;;;;;;5068339;28;20043;-67
2023/01/26 04:29:10;;;;;;;25.30;9.00;;;1.90;99.90;;;;;;5066189;28;20045;-66
2023/01/26 04:31:36;;;;;;;26.10;9.45;;;2.00;99.90;;;;;;5068045;28;20037;-67
2023/01/26 04:34:04;;;;;;;22.83;8.73;;;2.00;99.90;;;;;;5066415;28;20218;-67
2023/01/26 04:36:31;;;;;;;28.38;9.20;;;2.10;99.90;;;;;;5066231;28;20151;-67
2023/01/26 04:38:57;;;;;;;23.02;9.13;;;2.10;99.90;;;;;;5063271;28;20056;-66
2023/01/26 04:41:23;;;;;;;25.33;9.10;;;2.10;99.90;;;;;;5062635;28;20049;-66
2023/01/26 04:43:48;;;;;;;27.13;8.40;;;2.20;99.90;;;;;;5063660;28;20416;-66
2023/01/26 04:46:14;;;;;;;22.37;8.63;;;2.20;99.90;;;;;;5066131;28;20045;-67
2023/01/26 04:48:40;;;;;;;28.40;8.90;;;2.20;99.90;;;;;;5073665;28;20048;-66
2023/01/26 04:51:12;;;;;;;27.02;9.75;;;2.30;99.90;;;;;;5066135;28;20406;-66
2023/01/26 04:53:38;;;;;;;23.60;9.15;;;2.30;99.90;;;;;;5062559;28;20123;-66
2023/01/26 04:56:04;;;;;;;26.10;9.77;;;2.30;99.90;;;;;;5066239;28;20557;-66
2023/01/26 04:58:31;;;;;;;29.40;9.98;;;2.30;99.90;;;;;;5065638;28;20056;-66
2023/01/26 05:00:57;;;;;;;22.08;8.43;;;2.30;99.90;;;;;;5055181;28;20154;-66
2023/01/26 05:03:24;;;;;;;24.40;8.10;;;2.40;99.90;;;;;;5063806;28;20119;-66
2023/01/26 05:05:52;;;;;;;25.45;9.02;;;2.40;99.90;;;;;;5065138;28;20040;-66
2023/01/26 05:08:18;;;;;;;28.73;10.07;;;2.40;99.90;;;;;;5067614;28;20078;-67
2023/01/26 05:10:45;;;;;;;20.58;8.40;;;2.40;99.90;;;;;;5056410;28;20060;-66
2023/01/26 05:13:11;;;;;;;30.80;8.63;;;2.50;99.90;;;;;;5065396;28;20099;-66
2023/01/26 05:15:37;;;;;;;24.88;8.50;;;2.50;99.90;;;;;;5063791;28;20064;-66
2023/01/26 05:18:03;;;;;;;26.13;10.27;;;2.50;99.90;;;;;;5069503;28;20040;-66
2023/01/26 05:20:30;;;;;;;25.80;8.13;;;2.50;99.90;;;;;;5064364;28;20086;-66
2023/01/26 05:22:55;;;;;;;20.20;7.85;;;2.60;99.90;;;;;;5071416;28;20075;-66
2023/01/26 05:25:21;;;;;;;24.20;8.23;;;2.60;99.90;;;;;;5062223;28;20068;-67
2023/01/26 05:27:47;;;;;;;22.35;7.85;;;2.70;99.90;;;;;;5070331;28;20355;-66
2023/01/26 05:30:13;;;;;;;25.50;7.63;;;2.60;99.90;;;;;;5047411;28;20036;-67
2023/01/26 05:32:39;;;;;;;22.83;7.18;;;2.70;99.90;;;;;;5065171;28;20044;-66
2023/01/26 05:35:06;;;;;;;22.67;8.33;;;2.70;99.90;;;;;;5062806;28;20095;-67
2023/01/26 05:37:32;;;;;;;20.45;7.55;;;2.70;99.90;;;;;;5075879;28;20276;-67
2023/01/26 05:39:59;;;;;;;23.63;7.88;;;2.70;99.90;;;;;;5070781;28;20051;-66
2023/01/26 05:42:25;;;;;;;22.38;7.30;;;2.70;99.90;;;;;;5065732;28;20052;-66
2023/01/26 05:44:51;;;;;;;25.35;7.63;;;2.70;99.90;;;;;;5061208;28;20036;-66
2023/01/26 05:47:17;;;;;;;21.88;8.05;;;2.70;99.90;;;;;;5064201;28;20055;-67
2023/01/26 05:49:44;;;;;;;23.05;6.45;;;2.80;99.90;;;;;;5061333;28;20630;-67
2023/01/26 05:52:19;;;;;;;20.60;6.43;;;2.80;99.90;;;;;;5069491;28;20052;-67
2023/01/26 05:54:45;;;;;;;19.00;5.78;;;2.80;99.90;;;;;;5070119;28;20040;-67
2023/01/26 05:57:11;;;;;;;15.73;5.15;;;2.80;99.90;;;;;;5071288;28;20071;-66
2023/01/26 05:59:37;;;;;;;27.08;5.07;;;2.80;99.90;;;;;;5065356;28;20049;-67
2023/01/26 06:02:03;;;;;;;13.50;4.30;;;2.90;99.90;;;;;;5066763;28;20037;-67
2023/01/26 06:04:29;;;;;;;13.38;4.07;;;2.90;99.90;;;;;;5060380;28;20036;-66
2023/01/26 06:06:56;;;;;;;13.73;5.93;;;2.90;99.90;;;;;;5062082;28;20540;-67
2023/01/26 06:09:22;;;;;;;14.02;3.20;;;3.00;99.90;;;;;;5048781;28;20442;-66
2023/01/26 06:11:48;;;;;;;17.07;3.53;;;3.10;99.90;;;;;;5049612;28;20119;-67
2023/01/26 06:14:13;;;;;;;25.33;3.30;;;3.10;99.90;;;;;;5054569;28;20124;-67
2023/01/26 06:16:39;;;;;;;19.03;2.57;;;3.10;99.90;;;;;;5055300;28;20110;-67
2023/01/26 06:19:05;;;;;;;6.83;1.93;;;3.10;99.90;;;;;;5054208;28;20796;-66
2023/01/26 06:21:32;;;;;;;18.05;2.65;;;3.20;99.90;;;;;;5061466;28;20045;-67
2023/01/26 06:23:58;;;;;;;14.30;2.25;;;3.20;99.90;;;;;;5053371;28;20059;-66
2023/01/26 06:26:24;;;;;;;10.88;2.55;;;3.20;99.90;;;;;;5055070;28;20040;-67
2023/01/26 06:28:51;;;;;;;12.75;2.25;;;3.30;99.90;;;;;;5058967;28;20041;-67
2023/01/26 06:31:17;;;;;;;13.23;2.65;;;3.30;99.90;;;;;;5058898;28;20045;-67
2023/01/26 06:33:43;;;;;;;16.17;3.92;;;3.40;99.90;;;;;;5059798;28;20681;-67
2023/01/26 06:36:11;;;;;;;10.77;2.13;;;3.40;99.90;;;;;;5059855;28;20115;-72
2023/01/26 06:38:38;;;;;;;16.85;2.05;;;3.50;99.90;;;;;;5066478;28;20165;-69
2023/01/26 06:41:04;;;;;;;;;;;3.60;99.90;;;;;;5067624;28;20036;-69
2023/01/26 06:43:31;;;;;;;11.43;2.42;;;3.60;99.90;;;;;;5066003;28;19952;-69
2023/01/26 06:45:57;;;;;;;15.82;2.70;;;3.60;99.90;;;;;;5065945;28;20052;-73
2023/01/26 06:48:28;;;;;;;13.15;2.10;;;3.70;99.90;;;;;;5069284;28;20421;-73
2023/01/26 06:51:22;;;;;;;17.13;3.03;;;3.70;99.90;;;;;;5066751;28;20040;-73
2023/01/26 06:53:56;;;;;;;18.20;2.53;;;3.70;99.90;;;;;;5063729;28;20217;-68
2023/01/26 06:56:23;;;;;;;14.25;1.85;;;3.70;99.90;;;;;;5067232;28;20075;-69
2023/01/26 06:58:49;;;;;;;14.50;2.63;;;3.70;99.90;;;;;;5058241;28;20048;-69
2023/01/26 07:01:20;;;;;;;7.05;2.22;;;3.60;99.90;;;;;;5060353;28;20054;-70
2023/01/26 07:03:50;;;;;;;12.43;2.20;;;3.60;99.90;;;;;;5067933;28;20090;-69
2023/01/26 07:06:16;;;;;;;15.95;1.50;;;3.60;99.90;;;;;;5072521;22;20420;-73
2023/01/26 07:08:42;;;;;;;15.57;3.67;;;3.60;99.90;;;;;;5044167;28;20510;-68
2023/01/26 07:11:09;;;;;;;16.60;1.83;;;3.70;99.90;;;;;;5042880;28;20060;-70
2023/01/26 07:13:35;;;;;;;9.77;2.35;;;3.80;99.90;;;;;;5048104;28;20037;-69
2023/01/26 07:16:03;;;;;;;17.00;3.40;;;3.80;99.90;;;;;;5042686;28;20185;-68
2023/01/26 07:18:29;;;;;;;9.18;1.40;;;3.70;99.90;;;;;;5039851;28;20701;-70
2023/01/26 07:21:00;;;;;;;12.10;2.33;;;3.80;99.90;;;;;;5043109;28;20284;-75
2023/01/26 07:23:26;;;;;;;25.77;2.80;;;3.70;99.90;;;;;;5045164;28;20369;-77
2023/01/26 07:25:51;;;;;;;13.10;3.50;;;3.70;99.90;;;;;;5043674;28;20119;-74
2023/01/26 07:28:17;;;;;;;18.63;2.70;;;3.70;99.90;;;;;;5040983;28;20072;-72
2023/01/26 07:30:43;;;;;;;23.10;2.55;;;3.70;99.90;;;;;;5050521;28;22788;-74
2023/01/26 07:33:09;;;;;;;14.70;1.87;;;3.70;99.90;;;;;;5046607;28;20063;-75
2023/01/26 07:35:34;;;;;;;12.47;2.43;;;3.80;99.90;;;;;;5046796;28;20033;-76
2023/01/26 07:38:03;;;;;;;23.10;2.40;;;3.70;99.90;;;;;;5045116;28;20048;-67
2023/01/26 07:40:29;;;;;;;17.10;2.53;;;3.70;99.90;;;;;;5044773;28;20041;-74
2023/01/26 07:42:55;;;;;;;11.20;1.67;;;3.70;99.90;;;;;;5035673;28;20041;-72
2023/01/26 07:45:20;;;;;;;10.13;2.45;;;3.70;99.90;;;;;;5041026;28;20098;-67
2023/01/26 07:47:46;;;;;;;11.17;2.10;;;3.60;99.90;;;;;;5050439;28;20399;-67
2023/01/26 07:50:13;;;;;;;22.73;2.25;;;3.60;99.90;;;;;;5041952;28;20035;-67
2023/01/26 07:52:39;;;;;;;14.13;1.65;;;3.70;99.90;;;;;;5058470;28;20056;-67
2023/01/26 07:55:05;;;;;;;11.27;1.50;;;3.70;99.90;;;;;;5053066;28;20049;-67
2023/01/26 07:57:32;;;;;;;11.70;2.58;;;3.70;99.90;;;;;;5065231;28;20075;-68
2023/01/26 07:59:58;;;;;;;13.77;2.60;;;3.70;99.90;;;;;;5062863;28;20029;-68
2023/01/26 08:02:24;;;;;;;15.37;2.30;;;3.80;99.90;;;;;;5062931;28;20051;-68
2023/01/26 08:04:49;;;;;;;13.93;3.07;;;3.70;99.90;;;;;;5057480;28;20400;-68
2023/01/26 08:07:15;;;;;;;9.90;1.90;;;3.70;99.90;;;;;;5055593;28;20037;-69
2023/01/26 08:09:41;;;;;;;18.60;3.13;;;3.70;99.90;;;;;;5056310;28;20090;-68
2023/01/26 08:12:06;;;;;;;12.73;2.30;;;3.70;99.90;;;;;;5055620;28;20569;-68
2023/01/26 08:14:32;;;;;;;13.57;2.57;;;3.70;99.90;;;;;;5052091;28;20059;-68
2023/01/26 08:16:58;;;;;;;18.13;2.55;;;3.70;99.90;;;;;;5050865;28;20410;-68
2023/01/26 08:19:23;;;;;;;11.47;2.67;;;3.70;99.90;;;;;;5050732;28;20102;-68
2023/01/26 08:21:49;;;;;;;16.23;2.50;;;3.70;99.90;;;;;;5052545;28;20040;-68
2023/01/26 08:24:15;;;;;;;9.93;2.10;;;3.80;99.90;;;;;;5044256;28;20074;-68
2023/01/26 08:26:40;;;;;;;24.77;3.57;;;3.80;99.90;;;;;;5051420;28;20110;-68
2023/01/26 08:29:06;;;;;;;16.40;2.50;;;3.80;99.90;;;;;;5051985;28;20478;-68
2023/01/26 08:31:32;;;;;;;15.83;2.70;;;3.80;99.90;;;;;;5050262;28;20033;-68
2023/01/26 08:33:58;;;;;;;22.30;2.83;;;3.80;99.90;;;;;;5051846;28;20033;-68
2023/01/26 08:36:24;;;;;;;8.18;1.95;;;3.80;99.90;;;;;;5051355;28;20108;-68
2023/01/26 08:38:50;;;;;;;12.23;2.95;;;3.90;99.90;;;;;;5051968;28;20064;-68
2023/01/26 08:41:16;;;;;;;17.27;2.55;;;3.90;99.90;;;;;;5050405;28;20523;-68
2023/01/26 08:43:42;;;;;;;20.45;3.38;;;4.00;99.90;;;;;;5051828;28;20037;-68
2023/01/26 08:46:08;;;;;;;13.37;2.07;;;4.00;99.90;;;;;;5051677;28;20047;-68
2023/01/26 08:48:34;;;;;;;15.57;2.22;;;4.00;99.90;;;;;;5051453;28;20134;-68
2023/01/26 08:51:03;;;;;;;16.10;2.92;;;4.20;99.90;;;;;;5052096;28;20123;-68
2023/01/26 08:53:31;;;;;;;15.75;1.73;;;4.20;99.90;;;;;;5051238;28;20097;-68
2023/01/26 08:55:56;;;;;;;13.05;3.28;;;4.30;99.90;;;;;;5059503;28;20032;-68
2023/01/26 08:58:22;;;;;;;8.63;2.00;;;4.40;99.90;;;;;;5051482;28;20425;-68
2023/01/26 09:00:47;;;;;;;10.23;2.23;;;4.50;99.90;;;;;;5051357;28;20045;-68
2023/01/26 09:03:13;;;;;;;15.13;2.27;;;4.50;99.90;;;;;;5055820;28;20136;-68
2023/01/26 09:05:40;;;;;;;11.53;2.13;;;4.60;99.90;;;;;;5054121;28;20049;-68
2023/01/26 09:08:07;;;;;;;15.82;2.38;;;4.60;99.90;;;;;;5053786;28;20082;-68
2023/01/26 09:10:33;;;;;;;17.13;2.08;;;4.60;99.90;;;;;;5051314;28;20047;-68
2023/01/26 09:12:59;;;;;;;20.20;2.27;;;4.70;99.90;;;;;;5050627;28;20495;-68
2023/01/26 09:15:26;;;;;;;19.55;2.70;;;4.70;99.90;;;;;;5049446;28;20041;-68
2023/01/26 09:17:52;;;;;;;;;;;4.80;99.90;;;;;;5059150;28;20426;-68
2023/01/26 09:20:18;;;;;;;12.20;2.00;;;4.80;99.90;;;;;;5044172;28;19922;-73
2023/01/26 09:22:44;;;;;;;20.52;2.22;;;4.90;99.90;;;;;;5047632;28;20055;-70
2023/01/26 09:25:11;;;;;;;18.70;2.28;;;4.90;99.90;;;;;;5050728;28;20116;-73
2023/01/26 09:27:37;;;;;;;12.07;1.83;;;5.00;99.90;;;;;;5061475;28;20120;-74
2023/01/26 09:30:04;;;;;;;18.10;2.47;;;5.10;99.90;;;;;;5038247;28;20120;-68
2023/01/26 09:32:30;;;;;;;11.48;1.75;;;5.10;99.90;;;;;;5053527;28;20734;-69
2023/01/26 09:34:56;;;;;;;15.57;2.23;;;5.20;99.90;;;;;;5052509;28;20079;-69
2023/01/26 09:37:21;;;;;;;14.18;3.00;;;5.30;99.90;;;;;;5047190;28;20483;-75
2023/01/26 09:39:47;;;;;;;11.53;2.27;;;5.30;99.90;;;;;;5037833;28;20056;-71
2023/01/26 09:42:44;;;;;;;20.50;3.23;;;5.40;99.90;;;;;;5042590;28;20045;-69
2023/01/26 09:45:23;;;;;;;19.42;2.70;;;5.50;99.90;;;;;;5045342;28;20060;-70
2023/01/26 09:48:00;;;;;;;15.63;2.67;;;5.60;99.90;;;;;;5047346;28;20049;-71
2023/01/26 09:50:37;;;;;;;14.32;2.92;;;5.70;99.90;;;;;;5047642;28;20411;-68
2023/01/26 09:53:17;;;;;;;11.70;2.20;;;5.80;99.90;;;;;;5045412;28;20494;-68
2023/01/26 09:55:45;;;;;;;19.08;3.42;;;5.90;99.90;;;;;;5047156;28;20437;-68
2023/01/26 09:58:22;;;;;;;18.25;3.15;;;5.90;99.90;;;;;;5048018;28;20048;-70
2023/01/26 10:00:54;;;;;;;18.23;3.45;;;6.00;99.90;;;;;;5049192;28;20076;-69
2023/01/26 10:03:48;;;;;;;18.45;4.38;;;6.10;99.90;;;;;;5052424;28;20201;-68
2023/01/26 10:06:31;;;;;;;17.83;3.92;;;6.20;99.90;;;;;;5044550;28;20116;-68
2023/01/26 10:09:07;;;;;;;25.00;3.65;;;6.30;99.90;;;;;;5047785;28;20041;-68
2023/01/26 10:11:37;;;;;;;19.65;2.25;;;6.30;99.90;;;;;;5059248;28;20048;-67
2023/01/26 10:14:29;;;;;;;8.90;2.42;;;6.40;99.90;;;;;;5051551;28;20040;-68
2023/01/26 10:16:56;;;;;;;17.75;2.90;;;6.50;99.90;;;;;;5023755;28;20059;-68
2023/01/26 10:19:44;;;;;;;21.95;2.60;;;6.60;99.90;;;;;;5046650;28;20048;-67
2023/01/26 10:22:30;;;;;;;18.98;2.75;;;6.70;99.90;;;;;;5047848;28;20052;-68
2023/01/26 10:24:56;;;;;;;16.05;2.72;;;6.70;99.90;;;;;;5047394;28;20045;-68
2023/01/26 10:27:22;;;;;;;17.20;1.80;;;6.80;99.90;;;;;;5045775;28;20539;-68
2023/01/26 10:29:48;;;;;;;13.50;2.10;;;6.80;99.90;;;;;;5048868;28;20305;-67
2023/01/26 10:32:17;;;;;;;15.90;2.10;;;6.90;99.90;;;;;;5050853;28;20040;-67
2023/01/26 10:34:46;;;;;;;17.42;1.90;;;6.90;99.90;;;;;;5046788;28;20158;-67
2023/01/26 10:37:22;;;;;;;13.90;3.47;;;7.00;99.90;;;;;;5047816;28;20056;-68
2023/01/26 10:40:06;;;;;;;7.20;2.05;;;7.00;99.90;;;;;;5049542;28;20483;-67
2023/01/26 10:42:34;;;;;;;13.35;2.50;;;7.00;99.90;;;;;;5044025;28;20049;-68
2023/01/26 10:45:02;;;;;;;14.90;1.98;;;7.10;99.90;;;;;;5050606;28;20434;-67
2023/01/26 10:47:28;;;;;;;6.13;1.63;;;7.20;99.90;;;;;;5048753;28;20075;-68
2023/01/26 10:50:18;;;;;;;10.10;2.07;;;7.30;99.90;;;;;;5046517;28;20480;-67
2023/01/26 10:52:58;;;;;;;9.25;1.40;;;7.50;99.90;;;;;;5058161;28;20270;-70
2023/01/26 10:55:24;;;;;;;14.50;2.28;;;7.70;99.90;;;;;;5047641;28;20044;-68
2023/01/26 10:57:50;;;;;;;11.63;2.07;;;7.80;99.90;;;;;;5058142;28;20098;-68
2023/01/26 11:00:32;;;;;;;12.53;1.57;;;7.90;99.90;;;;;;5047502;28;20298;-68
2023/01/26 11:03:16;;;;;;;7.80;1.42;;;8.00;99.90;;;;;;5047465;28;20105;-68
2023/01/26 11:05:43;;;;;;;16.55;1.80;;;8.10;99.90;;;;;;5050142;28;20212;-69
2023/01/26 11:08:34;;;;;;;9.15;2.15;;;8.10;99.90;;;;;;5058599;28;20128;-68
2023/01/26 11:11:02;;;;;;;8.80;1.85;;;8.10;99.90;;;;;;5054051;28;20372;-67
2023/01/26 11:13:29;;;;;;;8.95;1.85;;;8.10;99.90;;;;;;5054346;28;20475;-68
2023/01/26 11:16:00;;;;;;;13.05;1.75;;;8.00;99.90;;;;;;5038972;28;20044;-68
2023/01/26 11:18:44;;;;;;;9.50;1.13;;;8.00;99.90;;;;;;5046060;28;20083;-68
2023/01/26 11:21:30;;;;;;;5.15;1.00;;;8.00;99.90;;;;;;5052332;28;20043;-68
2023/01/26 11:24:19;;;;;;;7.50;1.20;;;7.90;99.90;;;;;;5040476;28;20401;-68
2023/01/26 11:27:10;;;;;;;4.32;0.95;;;7.80;99.90;;;;;;5047777;28;20372;-68
2023/01/26 11:30:09;;;;;;;7.45;1.17;;;7.70;99.90;;;;;;5039249;28;20506;-68
2023/01/26 11:33:12;;;;;;;7.95;1.65;;;7.60;99.90;;;;;;5051593;28;20467;-68
2023/01/26 11:35:50;;;;;;;4.85;0.85;;;7.60;99.90;;;;;;5045765;28;20124;-68
2023/01/26 11:38:35;;;;;;;10.63;2.25;;;7.60;99.90;;;;;;5029186;28;20131;-68
2023/01/26 11:41:40;;;;;;;7.35;2.00;;;7.50;99.90;;;;;;5049969;28;20040;-68
2023/01/26 11:44:20;;;;;;;9.23;1.33;;;7.50;99.90;;;;;;5026971;28;20076;-68
2023/01/26 11:47:30;;;;;;;11.10;1.48;;;7.70;99.90;;;;;;5050184;28;20124;-68
2023/01/26 11:50:33;;;;;;;8.25;1.58;;;7.80;99.90;;;;;;5007570;28;20034;-68
2023/01/26 11:53:31;;;;;;;7.57;1.50;;;8.00;99.90;;;;;;4985274;28;20403;-68
2023/01/26 11:56:36;;;;;;;7.22;1.60;;;8.20;99.90;;;;;;5050072;28;20052;-68
2023/01/26 11:59:10;;;;;;;8.55;1.95;;;8.20;99.90;;;;;;5071408;28;20045;-68
2023/01/26 12:02:20;;;;;;;7.85;1.33;;;8.20;99.90;;;;;;5061672;28;20059;-68
2023/01/26 12:04:46;;;;;;;11.02;2.58;;;8.20;99.90;;;;;;5066387;28;20041;-68
2023/01/26 12:07:26;;;;;;;11.07;3.10;;;8.20;99.90;;;;;;5050873;28;20411;-68
2023/01/26 12:09:52;;;;;;;23.27;3.50;;;8.20;99.90;;;;;;5050502;28;20041;-68
2023/01/26 12:12:32;;;;;;;14.90;2.83;;;8.20;99.90;;;;;;5050806;28;20090;-68
2023/01/26 12:15:09;;;;;;;19.85;3.47;;;8.10;99.90;;;;;;5050870;28;20445;-68
2023/01/26 12:18:00;;;;;;;15.73;3.30;;;8.20;99.90;;;;;;5051227;28;20037;-68
2023/01/26 12:20:40;;;;;;;15.50;2.60;;;8.20;99.90;;;;;;5051178;28;20094;-68
2023/01/26 12:23:32;;;;;;;10.48;1.75;;;8.30;99.90;;;;;;5055265;28;20040;-68
2023/01/26 12:26:00;;;;;;;7.32;1.65;;;8.30;99.90;;;;;;5034460;28;20216;-68
2023/01/26 12:28:32;;;;;;;9.80;1.92;;;8.40;99.90;;;;;;5049960;28;20483;-68
2023/01/26 12:31:16;;;;;;;10.52;1.35;;;8.40;99.90;;;;;;5054707;28;20439;-68
2023/01/26 12:33:42;;;;;;;6.15;1.23;;;8.40;99.90;;;;;;5052791;28;20037;-68
2023/01/26 12:36:33;;;;;;;10.23;1.48;;;8.40;99.90;;;;;;5065377;28;20048;-68
2023/01/26 12:39:11;;;;;;;4.72;1.15;;;8.40;99.90;;;;;;5034546;28;20036;-68
2023/01/26 12:42:02;;;;;;;7.43;1.83;;;8.30;99.90;;;;;;5048677;28;20425;-68
2023/01/26 12:44:40;;;;;;;11.40;2.25;;;8.30;99.90;;;;;;5050119;28;20452;-68
2023/01/26 12:47:32;;;;;;;13.20;2.25;;;8.30;99.90;;;;;;5055845;28;20187;-68
2023/01/26 12:50:24;;;;;;;12.60;1.52;;;8.30;99.90;;;;;;5048053;28;20484;-68
2023/01/26 12:52:53;;;;;;;6.22;1.40;;;8.30;99.90;;;;;;5044191;28;20565;-68
2023/01/26 12:55:25;;;;;;;9.13;1.58;;;8.30;99.90;;;;;;5057719;28;20040;-68
2023/01/26 12:58:04;;;;;;;7.53;1.58;;;8.30;99.90;;;;;;5068231;28;20048;-67
2023/01/26 13:00:35;;;;;;;6.03;1.35;;;8.20;99.90;;;;;;5051794;28;20041;-68
2023/01/26 13:03:27;;;;;;;11.70;1.98;;;8.20;99.90;;;;;;5054355;28;20044;-68
2023/01/26 13:08:29;;;;;;;10.68;1.30;;;8.20;99.90;;;;;;5066800;28;20056;-69
2023/01/26 13:10:55;;;;;;;11.45;1.13;;;8.20;99.90;;;;;;5058522;28;20081;-69
2023/01/26 13:13:26;;;;;;;;;;;8.20;99.90;;;;;;5068332;28;20466;-69
2023/01/26 13:16:16;;;;;;;9.00;1.25;;;8.20;99.90;;;;;;5066711;28;19974;-69
2023/01/26 13:18:48;;;;;;;3.97;1.20;;;8.20;99.90;;;;;;5062971;28;20110;-69
2023/01/26 13:21:36;;;;;;;8.63;1.00;;;8.20;99.90;;;;;;5066472;28;20238;-67
2023/01/26 13:24:16;;;;;;;6.00;1.10;;;8.20;99.90;;;;;;5070710;28;20153;-66
2023/01/26 13:26:50;;;;;;;10.05;1.73;;;8.10;99.90;;;;;;5049755;28;20040;-68
2023/01/26 13:29:27;;;;;;;7.07;0.93;;;8.10;99.90;;;;;;5069626;28;20071;-67
2023/01/26 13:31:58;;;;;;;8.45;1.23;;;8.10;99.90;;;;;;5042905;28;20444;-67
2023/01/26 13:34:26;;;;;;;7.13;1.38;;;8.00;99.90;;;;;;5068041;28;20428;-67
2023/01/26 13:37:14;;;;;;;11.38;1.80;;;8.00;99.90;;;;;;5066801;28;21224;-67
2023/01/26 13:39:44;;;;;;;5.05;1.20;;;8.00;99.90;;;;;;5064382;28;20052;-67
2023/01/26 13:42:19;;;;;;;7.95;1.10;;;8.00;99.90;;;;;;5058615;28;20119;-67
2023/01/26 13:44:56;;;;;;;6.18;0.88;;;7.90;99.90;;;;;;5065232;28;20146;-68
2023/01/26 13:47:28;;;;;;;6.00;1.33;;;7.90;99.90;;;;;;5042587;28;20041;-67
2023/01/26 13:49:54;;;;;;;5.00;1.27;;;7.90;99.90;;;;;;5069627;28;20112;-67
2023/01/26 13:52:24;;;;;;;4.27;0.90;;;7.90;99.90;;;;;;5054692;28;20409;-67
2023/01/26 13:54:52;;;;;;;7.45;1.73;;;7.80;99.90;;;;;;5069752;28;20386;-67
2023/01/26 13:57:27;;;;;;;5.57;1.60;;;7.80;99.90;;;;;;5063782;28;20040;-67